Time;durP1;ratioP1;P1;durP2;ratioP2;P2;SDS_P1;SDS_P2;PMS_P1;PMS_P2;Temp;Humidity;BMP_temperature;BMP_pressure;BME280_temperature;BME280_humidity;BME280_pressure;Samples;Min_cycle;Max_cycle;Signal;HPM_P1;HPM_P2
2022/10/08 00:01:06;;;;;;;;;;;;;;;6.37;100.00;95731.31;5061819;28;19928;-72
2022/10/08 00:03:35;;;;;;;;;;;;;;;6.27;100.00;95729.00;5062686;28;19929;-72
2022/10/08 00:06:03;;;;;;;;;;;;;;;6.06;100.00;95719.41;5062966;28;19998;-72
2022/10/08 00:08:36;;;;;;;;;;;;;;;6.10;100.00;95716.28;5084168;28;21448;-72
2022/10/08 00:11:05;;;;;;;;;;;;;;;5.88;100.00;95712.78;5057218;28;20064;-73
2022/10/08 00:13:39;;;;;;;;;;;;;;;5.79;100.00;95713.88;5062415;28;20464;-72
2022/10/08 00:16:07;;;;;;;;;;;;;;;5.83;100.00;95709.94;5053349;28;20329;-72
2022/10/08 00:18:34;;;;;;;;;;;;;;;6.11;100.00;95711.91;5059960;28;19936;-72
2022/10/08 00:21:10;;;;;;;;;;;;;;;6.18;100.00;95717.97;5056874;28;20870;-73
2022/10/08 00:23:36;;;;;;;;;;;;;;;6.11;100.00;95711.91;5064327;28;20666;-73
2022/10/08 00:26:06;;;;;;;;;;;;;;;6.09;100.00;95709.50;5058851;28;20060;-72
2022/10/08 00:28:33;;;;;;;;;;;;;;;5.85;100.00;95710.59;5065575;28;20470;-72
2022/10/08 00:31:08;;;;;;;;;;;;;;;5.84;100.00;95711.56;5057173;28;19920;-72
2022/10/08 00:33:35;;;;;;;;;;;;;;;5.69;100.00;95708.16;5065063;28;19941;-72
2022/10/08 00:36:02;;;;;;;;;;;;;;;5.69;100.00;95700.41;5061004;28;19934;-72
2022/10/08 00:38:29;;;;;;;;;;;;;;;5.70;100.00;95702.81;5066911;28;19940;-73
2022/10/08 00:40:56;;;;;;;;;;;;;;;5.70;100.00;95699.44;5088190;27;19932;-72
2022/10/08 00:43:42;;;;;;;;;;;;;;;5.50;100.00;95694.00;5062895;28;20055;-72
2022/10/08 00:46:17;;;;;;;;;;;;;;;5.48;100.00;95688.22;5088599;27;19944;-73
2022/10/08 00:48:43;;;;;;;;;;;;;;;5.50;100.00;95684.44;5092987;27;19971;-72
2022/10/08 00:51:10;;;;;;;;;;;;;;;5.54;100.00;95684.91;5073297;28;20666;-73
2022/10/08 00:53:37;;;;;;;;;;;;;;;5.60;100.00;95691.13;5064029;28;20980;-72
2022/10/08 00:56:04;;;;;;;;;;;;;;;5.47;100.00;95689.97;5069392;28;19928;-72
2022/10/08 00:58:31;;;;;;;;;;;;;;;5.51;100.00;95680.91;5061806;28;19927;-72
2022/10/08 01:00:58;;;;;;;;;;;;;;;5.35;100.00;95675.91;5068547;28;20674;-72
2022/10/08 01:03:25;;;;;;;;;;;;;;;5.23;100.00;95677.31;5062091;28;19935;-72
2022/10/08 01:05:54;;;;;;;;;;;;;;;5.17;100.00;95673.66;5073632;28;19932;-72
2022/10/08 01:08:33;;;;;;;;;;;;;;;5.16;100.00;95672.84;5065781;28;19928;-72
2022/10/08 01:11:10;;;;;;;;;;;;;;;5.13;100.00;95673.22;5071234;28;19924;-71
2022/10/08 01:13:37;;;;;;;;;;;;;;;5.14;100.00;95664.47;5066581;28;19990;-72
2022/10/08 01:16:10;;;;;;;;;;;;;;;5.05;100.00;95665.53;5066273;28;20041;-72
2022/10/08 01:18:50;;;;;;;;;;;;;;;5.13;100.00;95668.06;5100425;27;19981;-71
2022/10/08 01:21:26;;;;;;;;;;;;;;;5.09;100.00;95671.94;5069176;28;20134;-71
2022/10/08 01:23:55;;;;;;;;;;;;;;;4.96;100.00;95661.41;5063800;28;19924;-72
2022/10/08 01:26:34;;;;;;;;;;;;;;;4.97;100.00;95657.88;5061673;28;19925;-74
2022/10/08 01:29:00;;;;;;;;;;;;;;;4.91;100.00;95655.97;5060120;28;19932;-73
2022/10/08 01:31:41;;;;;;;;;;;;;;;4.85;100.00;95654.09;5066671;28;20025;-73
2022/10/08 01:34:11;;;;;;;;;;;;;;;4.84;100.00;95652.50;5088099;27;20023;-72
2022/10/08 01:36:42;;;;;;;;;;;;;;;5.00;100.00;95652.34;5057650;28;19924;-71
2022/10/08 01:39:15;;;;;;;;;;;;;;;4.84;100.00;95644.75;5060846;28;20630;-71
2022/10/08 01:41:47;;;;;;;;;;;;;;;4.89;100.00;95639.88;5057165;28;19925;-71
2022/10/08 01:44:18;;;;;;;;;;;;;;;4.82;100.00;95638.97;5057895;28;20017;-72
2022/10/08 01:46:47;;;;;;;;;;;;;;;4.77;100.00;95642.88;5061737;28;20405;-71
2022/10/08 01:49:16;;;;;;;;;;;;;;;4.81;100.00;95642.50;5058652;28;21435;-72
2022/10/08 01:51:47;;;;;;;;;;;;;;;4.70;100.00;95644.53;5056924;28;19928;-72
2022/10/08 01:54:15;;;;;;;;;;;;;;;4.84;100.00;95642.97;5078491;27;20038;-72
2022/10/08 01:56:44;;;;;;;;;;;;;;;4.86;100.00;95650.53;5055257;28;19925;-71
2022/10/08 01:59:13;;;;;;;;;;;;;;;4.82;100.00;95638.97;5058411;28;19928;-72
2022/10/08 02:01:44;;;;;;;;;;;;;;;4.72;100.00;95640.00;5058580;28;19940;-72
2022/10/08 02:06:56;;;;;;;;;;;;;;;4.77;100.00;95632.56;5059666;28;19960;-72
2022/10/08 02:09:26;;;;;;;;;;;;;;;4.70;100.00;95641.97;5091613;27;20228;-72
2022/10/08 02:11:53;;;;;;;;;;;;;;;4.61;100.00;95630.13;5060473;28;19928;-72
2022/10/08 02:14:24;;;;;;;;;;;;;;;4.71;100.00;95633.22;5064024;28;20396;-72
2022/10/08 02:17:00;;;;;;;;;;;;;;;4.69;100.00;95632.59;5061512;28;19935;-73
2022/10/08 02:19:43;;;;;;;;;;;;;;;4.66;100.00;95634.72;5063414;28;20047;-73
2022/10/08 02:22:10;;;;;;;;;;;;;;;4.62;100.00;95629.13;5069511;28;19928;-72
2022/10/08 02:24:43;;;;;;;;;;;;;;;4.83;100.00;95640.56;5059632;28;20325;-72
2022/10/08 02:27:10;;;;;;;;;;;;;;;4.68;100.00;95638.75;5067506;28;19936;-71
2022/10/08 02:29:42;;;;;;;;;;;;;;;4.64;100.00;95637.47;5059322;28;19967;-72
2022/10/08 02:32:24;;;;;;;;;;;;;;;4.63;100.00;95630.72;5064492;28;19994;-72
2022/10/08 02:34:55;;;;;;;;;;;;;;;4.78;100.00;95628.19;5057422;28;19928;-72
2022/10/08 02:37:24;;;;;;;;;;;;;;;4.89;100.00;95626.97;5062890;28;19925;-72
2022/10/08 02:39:59;;;;;;;;;;;;;;;4.89;100.00;95627.75;5057581;28;19929;-73
2022/10/08 02:42:27;;;;;;;;;;;;;;;4.77;100.00;95627.38;5058143;28;19932;-73
2022/10/08 02:45:26;;;;;;;;;;;;;;;4.74;100.00;95620.00;5061683;28;19932;-73
2022/10/08 02:47:57;;;;;;;;;;;;;;;4.99;100.00;95630.09;5018216;28;20031;-73
2022/10/08 02:50:26;;;;;;;;;;;;;;;4.85;100.00;95630.88;5058734;28;19935;-73
2022/10/08 02:52:53;;;;;;;;;;;;;;;4.87;100.00;95626.34;5067830;28;20264;-73
2022/10/08 02:55:43;;;;;;;;;;;;;;;4.79;100.00;95625.44;5059580;28;20688;-73
2022/10/08 02:58:10;;;;;;;;;;;;;;;4.92;100.00;95635.16;5065268;28;19936;-73
2022/10/08 03:00:44;;;;;;;;;;;;;;;4.74;100.00;95627.72;5057309;28;19931;-73
2022/10/08 03:03:17;;;;;;;;;;;;;;;4.67;100.00;95626.03;5061841;28;20409;-73
2022/10/08 03:05:45;;;;;;;;;;;;;;;4.70;100.00;95626.47;5059178;28;19934;-72
2022/10/08 03:08:13;;;;;;;;;;;;;;;4.65;100.00;95628.78;5058268;28;19948;-72
2022/10/08 03:10:41;;;;;;;;;;;;;;;4.61;100.00;95635.28;5059999;28;19941;-73
2022/10/08 03:13:08;;;;;;;;;;;;;;;4.65;100.00;95628.78;5064628;28;19932;-73
2022/10/08 03:15:36;;;;;;;;;;;;;;;4.62;100.00;95630.91;5056750;28;19932;-73
2022/10/08 03:18:05;;;;;;;;;;;;;;;4.64;100.00;95627.16;5055499;28;19967;-73
2022/10/08 03:20:32;;;;;;;;;;;;;;;4.59;100.00;95630.28;5075573;28;20197;-73
2022/10/08 03:23:01;;;;;;;;;;;;;;;4.52;100.00;95624.22;5058648;28;20473;-72
2022/10/08 03:25:27;;;;;;;;;;;;;;;4.58;100.00;95627.88;5065014;28;19929;-72
2022/10/08 03:27:54;;;;;;;;;;;;;;;4.57;100.00;95621.91;5059741;28;19931;-72
2022/10/08 03:30:20;;;;;;;;;;;;;;;4.37;100.00;95621.56;5061956;28;20011;-73
2022/10/08 03:32:47;;;;;;;;;;;;;;;4.45;100.00;95622.47;5060040;28;19968;-72
2022/10/08 03:35:14;;;;;;;;;;;;;;;4.23;100.00;95586.19;5063643;28;20023;-73
2022/10/08 03:37:41;;;;;;;;;;;;;;;4.32;100.00;95623.88;5058741;28;19994;-73
2022/10/08 03:40:08;;;;;;;;;;;;;;;4.25;100.00;95630.69;5063708;28;19928;-73
2022/10/08 03:42:35;;;;;;;;;;;;;;;4.08;100.00;95621.44;5061458;28;19971;-72
2022/10/08 03:45:02;;;;;;;;;;;;;;;3.97;100.00;95626.00;5060619;28;19928;-73
2022/10/08 03:47:30;;;;;;;;;;;;;;;3.93;100.00;95618.81;5060625;28;19928;-73
2022/10/08 03:49:57;;;;;;;;;;;;;;;3.87;100.00;95617.72;5058975;28;20458;-72
2022/10/08 03:52:24;;;;;;;;;;;;;;;3.77;100.00;95620.47;5058705;28;19956;-72
2022/10/08 03:54:50;;;;;;;;;;;;;;;3.79;100.00;95612.59;5055668;28;20345;-73
2022/10/08 03:57:17;;;;;;;;;;;;;;;3.73;100.00;95618.44;5060709;28;19979;-73
2022/10/08 03:59:43;;;;;;;;;;;;;;;3.74;100.00;95617.44;5056463;28;19932;-71
2022/10/08 04:02:10;;;;;;;;;;;;;;;3.97;100.00;95617.47;5062632;28;19958;-72
2022/10/08 04:04:38;;;;;;;;;;;;;;;3.89;100.00;95623.50;5056238;28;19925;-73
2022/10/08 04:07:04;;;;;;;;;;;;;;;3.79;100.00;95623.69;5059056;28;20025;-73
2022/10/08 04:09:31;;;;;;;;;;;;;;;3.78;100.00;95621.28;5058946;28;19929;-72
2022/10/08 04:12:00;;;;;;;;;;;;;;;3.86;100.00;95623.81;5086416;28;20439;-71
2022/10/08 04:14:28;;;;;;;;;;;;;;;3.80;100.00;95625.31;5056749;28;19932;-72
2022/10/08 04:16:57;;;;;;;;;;;;;;;3.91;100.00;95621.53;5059332;28;20449;-71
2022/10/08 04:19:23;;;;;;;;;;;;;;;4.01;100.00;95629.84;5060631;28;20605;-72
2022/10/08 04:21:50;;;;;;;;;;;;;;;4.06;100.00;95625.97;5059202;28;19979;-73
2022/10/08 04:24:16;;;;;;;;;;;;;;;4.15;100.00;95622.38;5060762;28;19995;-72
2022/10/08 04:26:43;;;;;;;;;;;;;;;4.05;100.00;95619.19;5058670;28;20021;-72
2022/10/08 04:29:11;;;;;;;;;;;;;;;4.00;100.00;95625.69;5061860;28;19968;-72
2022/10/08 04:31:39;;;;;;;;;;;;;;;3.87;100.00;95620.28;5064544;28;20344;-72
2022/10/08 04:34:05;;;;;;;;;;;;;;;3.85;100.00;95614.47;5066613;28;19928;-72
2022/10/08 04:36:32;;;;;;;;;;;;;;;3.91;100.00;95616.41;5060280;28;20091;-72
2022/10/08 04:38:59;;;;;;;;;;;;;;;3.77;100.00;95624.84;5071055;28;19928;-71
2022/10/08 04:41:26;;;;;;;;;;;;;;;3.71;100.00;95625.50;5063067;28;19925;-72
2022/10/08 04:43:58;;;;;;;;;;;;;;;3.72;100.00;95629.69;5062270;28;20020;-73
2022/10/08 04:46:24;;;;;;;;;;;;;;;3.70;100.00;95629.06;5062056;28;20454;-72
2022/10/08 04:48:55;;;;;;;;;;;;;;;3.65;100.00;95624.41;5061883;28;19946;-72
2022/10/08 04:51:23;;;;;;;;;;;;;;;3.80;100.00;95615.00;5060771;28;19924;-72
2022/10/08 04:53:50;;;;;;;;;;;;;;;3.90;100.00;95619.94;5057191;28;19972;-71
2022/10/08 04:56:18;;;;;;;;;;;;;;;3.94;100.00;95623.78;5060695;28;20032;-71
2022/10/08 04:58:45;;;;;;;;;;;;;;;4.06;100.00;95628.56;5059631;28;19924;-71
2022/10/08 05:01:14;;;;;;;;;;;;;;;3.99;100.00;95634.38;5063686;28;20227;-71
2022/10/08 05:03:42;;;;;;;;;;;;;;;4.00;100.00;95622.31;5066600;28;19936;-72
2022/10/08 05:06:09;;;;;;;;;;;;;;;4.13;100.00;95629.47;5063682;28;20022;-72
2022/10/08 05:08:36;;;;;;;;;;;;;;;4.07;100.00;95614.69;5059600;28;19920;-72
2022/10/08 05:11:03;;;;;;;;;;;;;;;4.05;100.00;95627.72;5064406;28;19974;-72
2022/10/08 05:13:30;;;;;;;;;;;;;;;4.07;100.00;95625.81;5061438;28;19982;-72
2022/10/08 05:16:01;;;;;;;;;;;;;;;4.21;100.00;95622.50;5062462;28;20013;-73
2022/10/08 05:18:28;;;;;;;;;;;;;;;4.34;100.00;95627.09;5061019;28;19935;-72
2022/10/08 05:20:55;;;;;;;;;;;;;;;4.21;100.00;95619.09;5064053;28;20661;-72
2022/10/08 05:23:21;;;;;;;;;;;;;;;4.22;100.00;95623.28;5060959;28;20216;-73
2022/10/08 05:25:48;;;;;;;;;;;;;;;4.45;100.00;95627.63;5060933;28;19928;-72
2022/10/08 05:28:15;;;;;;;;;;;;;;;4.40;100.00;95631.53;5061433;28;20352;-71
2022/10/08 05:30:43;;;;;;;;;;;;;;;4.49;100.00;95626.34;5064319;28;19925;-71
2022/10/08 05:33:10;;;;;;;;;;;;;;;4.50;100.00;95626.16;5070146;28;20002;-70
2022/10/08 05:35:37;;;;;;;;;;;;;;;4.57;100.00;95631.41;5064595;28;19929;-70
2022/10/08 05:38:04;;;;;;;;;;;;;;;4.64;100.00;95624.56;5071450;28;19925;-71
2022/10/08 05:40:30;;;;;;;;;;;;;;;4.86;100.00;95628.13;5064130;28;19928;-68
2022/10/08 05:42:57;;;;;;;;;;;;;;;4.97;100.00;95637.22;5070864;28;19932;-66
2022/10/08 05:45:23;;;;;;;;;;;;;;;5.13;100.00;95642.22;5063517;28;19928;-66
2022/10/08 05:47:50;;;;;;;;;;;;;;;5.15;100.00;95642.84;5068221;28;19936;-67
2022/10/08 05:50:17;;;;;;;;;;;;;;;5.40;100.00;95639.19;5063677;28;20419;-71
2022/10/08 05:52:44;;;;;;;;;;;;;;;5.64;100.00;95638.13;5067906;28;19981;-71
2022/10/08 05:55:11;;;;;;;;;;;;;;;5.72;100.00;95648.34;5066739;28;19929;-71
2022/10/08 05:57:39;;;;;;;;;;;;;;;5.79;100.00;95646.66;5065788;28;20261;-70
2022/10/08 06:00:06;;;;;;;;;;;;;;;5.93;100.00;95643.25;5066759;28;20645;-68
2022/10/08 06:02:37;;;;;;;;;;;;;;;6.10;100.00;95638.69;5065078;28;19932;-67
2022/10/08 06:05:03;;;;;;;;;;;;;;;6.28;100.00;95635.69;5069984;28;19924;-68
2022/10/08 06:07:30;;;;;;;;;;;;;;;6.53;100.00;95637.91;5063536;28;19924;-69
2022/10/08 06:09:57;;;;;;;;;;;;;;;6.84;100.00;95645.34;5065900;28;19978;-69
2022/10/08 06:12:24;;;;;;;;;;;;;;;7.16;100.00;95643.19;5068005;28;19986;-68
2022/10/08 06:56:57;;;;;;;;;;;;;;;9.66;100.00;95638.06;5102179;27;19928;-64
2022/10/08 06:59:24;;;;;;;;;;;;;;;10.09;100.00;95647.91;5097369;27;19928;-65
2022/10/08 07:01:50;;;;;;;;;;;;;;;10.13;100.00;95643.88;5099357;28;19924;-66
2022/10/08 07:04:17;;;;;;;;;;;;;;;10.14;100.00;95650.72;5102375;27;19934;-66
2022/10/08 07:06:43;;;;;;;;;;;;;;;10.29;100.00;95637.41;5098136;28;19932;-65
2022/10/08 07:09:12;;;;;;;;;;;;;;;10.38;100.00;95635.38;5096875;27;19928;-66
2022/10/08 07:11:38;;;;;;;;;;;;;;;10.77;100.00;95638.75;5100262;28;20402;-66
2022/10/08 07:14:05;;;;;;;;;;;;;;;11.09;100.00;95636.06;5099695;28;20469;-66
2022/10/08 07:16:32;;;;;;;;;;;;;;;11.19;100.00;95633.00;5098090;28;19928;-66
2022/10/08 07:18:59;;;;;;;;;;;;;;;11.45;100.00;95650.19;5099248;27;19924;-66
2022/10/08 07:21:26;;;;;;;;;;;;;;;11.57;100.00;95643.25;5104183;28;20416;-66
2022/10/08 07:23:53;;;;;;;;;;;;;;;11.62;100.00;95651.22;5098495;28;19963;-66
2022/10/08 07:26:21;;;;;;;;;;;;;;;11.65;100.00;95650.78;5099253;27;20428;-66
2022/10/08 07:28:52;;;;;;;;;;;;;;;11.95;100.00;95644.84;5098874;28;19928;-67
2022/10/08 07:31:23;;;;;;;;;;;;;;;12.17;100.00;95636.56;5096997;27;20302;-67
2022/10/08 07:33:50;;;;;;;;;;;;;;;12.37;100.00;95644.94;5095522;28;20005;-67
2022/10/08 07:36:17;;;;;;;;;;;;;;;12.61;100.00;95639.78;5093408;27;19939;-67
2022/10/08 07:38:44;;;;;;;;;;;;;;;12.86;100.00;95644.06;5096148;28;19924;-67
2022/10/08 07:41:11;;;;;;;;;;;;;;;12.87;100.00;95635.97;5099702;27;19932;-66
2022/10/08 07:43:40;;;;;;;;;;;;;;;13.99;100.00;95638.66;5097796;28;19931;-67
2022/10/08 07:46:07;;;;;;;;;;;;;;;13.76;100.00;95632.47;5095981;27;19932;-67
2022/10/08 07:48:35;;;;;;;;;;;;;;;13.67;100.00;95636.47;5097168;28;20433;-67
2022/10/08 07:51:09;;;;;;;;;;;;;;;13.37;100.00;95638.19;5097873;28;19932;-66
2022/10/08 07:53:36;;;;;;;;;;;;;;;13.13;100.00;95624.28;5097179;27;19927;-67
2022/10/08 07:56:03;;;;;;;;;;;;;;;13.18;100.00;95627.03;5097235;28;19997;-66
2022/10/08 07:58:30;;;;;;;;;;;;;;;13.15;100.00;95619.63;5097478;27;19931;-66
2022/10/08 08:00:57;;;;;;;;;;;;;;;13.40;100.00;95623.88;5097384;28;19939;-66
2022/10/08 08:03:24;;;;;;;;;;;;;;;13.72;100.00;95626.06;5096383;28;19938;-65
2022/10/08 08:05:52;;;;;;;;;;;;;;;13.55;100.00;95618.94;5097771;28;19924;-65
2022/10/08 08:08:22;;;;;;;;;;;;;;;13.84;100.00;95624.25;5089548;27;19928;-68
2022/10/08 08:10:54;;;;;;;;;;;;;;;13.93;100.00;95628.06;5084713;28;20321;-66
2022/10/08 08:13:21;;;;;;;;;;;;;;;13.99;100.00;95620.31;5084782;28;19935;-66
2022/10/08 08:15:54;;;;;;;;;;;;;;;14.29;100.00;95620.91;5084334;28;19981;-66
2022/10/08 08:18:21;;;;;;;;;;;;;;;14.41;100.00;95620.06;5088532;28;19950;-66
2022/10/08 08:20:47;;;;;;;;;;;;;;;14.56;100.00;95622.94;5083787;28;20027;-66
2022/10/08 08:23:14;;;;;;;;;;;;;;;14.64;100.00;95622.59;5087065;28;20385;-66
2022/10/08 08:25:41;;;;;;;;;;;;;;;14.94;100.00;95620.69;5085002;28;20402;-66
2022/10/08 08:28:07;;;;;;;;;;;;;;;14.99;100.00;95613.69;5087873;28;19928;-67
2022/10/08 08:30:34;;;;;;;;;;;;;;;14.91;100.00;95611.50;5084443;28;20381;-66
2022/10/08 08:33:01;;;;;;;;;;;;;;;15.05;100.00;95607.50;5085583;28;19963;-66
2022/10/08 08:35:27;;;;;;;;;;;;;;;15.04;100.00;95616.41;5086072;28;19971;-66
2022/10/08 08:37:54;;;;;;;;;;;;;;;15.45;100.00;95622.25;5088516;28;20357;-65
2022/10/08 08:40:21;;;;;;;;;;;;;;;15.52;100.00;95610.75;5083297;28;19932;-66
2022/10/08 08:42:47;;;;;;;;;;;;;;;15.49;100.00;95607.59;5081871;28;20145;-66
2022/10/08 08:45:27;;;;;;;;;;;;;;;15.74;100.00;95600.28;5081918;28;19934;-67
2022/10/08 08:48:12;;;;;;;;;;;;;;;15.77;100.00;95600.63;5082482;28;20049;-67
2022/10/08 08:50:40;;;;;;;;;;;;;;;16.05;94.42;95614.59;5081998;28;20030;-66
2022/10/08 08:53:13;;;;;;;;;;;;;;;16.10;91.16;95601.53;5084387;28;19975;-65
2022/10/08 08:55:41;;;;;;;;;;;;;;;16.28;88.97;95596.94;5080660;28;19932;-65
2022/10/08 08:58:11;;;;;;;;;;;;;;;16.48;89.25;95589.28;5081950;28;20392;-67
2022/10/08 09:00:43;;;;;;;;;;;;;;;16.81;85.64;95590.06;5079166;28;20477;-65
2022/10/08 09:03:13;;;;;;;;;;;;;;;17.11;83.20;95588.75;5079368;28;20016;-67
2022/10/08 09:05:42;;;;;;;;;;;;;;;17.19;83.83;95586.41;5083622;28;20270;-65
2022/10/08 09:08:17;;;;;;;;;;;;;;;17.08;82.71;95584.75;5081345;28;20446;-65
2022/10/08 09:10:46;;;;;;;;;;;;;;;17.05;82.08;95579.22;5081746;28;19993;-65
2022/10/08 09:13:16;;;;;;;;;;;;;;;17.13;80.86;95576.13;5081448;28;19925;-67
2022/10/08 09:15:44;;;;;;;;;;;;;;;17.31;80.53;95577.53;5084035;28;20079;-65
2022/10/08 09:18:11;;;;;;;;;;;;;;;17.29;80.80;95585.69;5082833;28;19931;-66
2022/10/08 09:20:38;;;;;;;;;;;;;;;17.50;79.72;95575.25;5083429;28;19955;-66
2022/10/08 09:23:13;;;;;;;;;;;;;;;17.67;79.03;95570.59;5083014;28;19928;-67
2022/10/08 09:25:41;;;;;;;;;;;;;;;17.98;76.22;95570.75;5082174;28;20210;-67
2022/10/08 09:28:07;;;;;;;;;;;;;;;17.56;78.37;95563.72;5083669;28;19928;-67
2022/10/08 09:30:34;;;;;;;;;;;;;;;17.50;77.60;95564.72;5081653;28;19924;-67
2022/10/08 09:33:03;;;;;;;;;;;;;;;17.43;77.52;95558.91;5084549;28;19928;-67
2022/10/08 09:35:32;;;;;;;;;;;;;;;18.26;76.16;95560.81;5085863;28;20319;-68
2022/10/08 09:37:59;;;;;;;;;;;;;;;18.62;74.07;95558.97;5087818;28;20422;-69
2022/10/08 09:40:31;;;;;;;;;;;;;;;19.24;70.88;95558.94;5081969;28;19928;-66
2022/10/08 09:43:16;;;;;;;;;;;;;;;19.53;69.89;95561.75;5083253;28;19928;-67
2022/10/08 09:45:42;;;;;;;;;;;;;;;19.56;67.85;95555.94;5083963;28;20013;-68
2022/10/08 09:48:21;;;;;;;;;;;;;;;20.03;63.20;95559.22;5083091;28;19970;-67
2022/10/08 09:50:48;;;;;;;;;;;;;;;20.59;58.88;95550.13;5086093;28;20475;-68
2022/10/08 09:53:14;;;;;;;;;;;;;;;20.77;58.33;95544.16;5079755;28;20143;-68
2022/10/08 09:55:48;;;;;;;;;;;;;;;20.38;56.79;95550.28;5083921;28;20055;-66
2022/10/08 09:58:17;;;;;;;;;;;;;;;20.84;55.28;95540.41;5080986;28;19932;-66
2022/10/08 10:00:44;;;;;;;;;;;;;;;20.37;56.83;95538.09;5080160;28;20321;-66
2022/10/08 10:03:18;;;;;;;;;;;;;;;20.55;55.91;95533.22;5083936;28;19925;-67
2022/10/08 10:05:49;;;;;;;;;;;;;;;20.93;57.20;95522.84;5082643;28;20010;-67
2022/10/08 10:08:35;;;;;;;;;;;;;;;20.51;56.92;95522.41;5082337;28;19969;-66
2022/10/08 10:11:01;;;;;;;;;;;;;;;21.10;54.58;95517.91;5079337;28;19971;-66
2022/10/08 10:13:33;;;;;;;;;;;;;;;21.72;52.64;95514.59;5082440;28;19932;-66
2022/10/08 10:16:11;;;;;;;;;;;;;;;22.08;51.68;95516.78;5082006;28;19983;-67
2022/10/08 10:18:44;;;;;;;;;;;;;;;22.06;49.22;95516.28;5082112;28;20035;-67
2022/10/08 10:21:14;;;;;;;;;;;;;;;22.12;49.01;95517.78;5081410;28;19967;-67
2022/10/08 10:23:45;;;;;;;;;;;;;;;22.14;49.06;95512.97;5082861;28;20316;-67
2022/10/08 10:26:11;;;;;;;;;;;;;;;21.38;50.10;95510.19;5081572;28;19963;-67
2022/10/08 10:28:44;;;;;;;;;;;;;;;21.36;50.04;95504.41;5084733;28;19928;-65
2022/10/08 10:31:24;;;;;;;;;;;;;;;21.01;51.17;95498.41;5083017;28;19931;-68
2022/10/08 10:34:00;;;;;;;;;;;;;;;21.24;51.81;95496.06;5083104;28;20325;-65
2022/10/08 10:36:30;;;;;;;;;;;;;;;21.66;50.89;95497.97;5083174;28;20023;-66
2022/10/08 10:38:57;;;;;;;;;;;;;;;22.12;50.12;95493.91;5081411;28;20360;-66
2022/10/08 10:41:32;;;;;;;;;;;;;;;21.95;49.18;95489.91;5080096;28;20008;-66
2022/10/08 10:44:03;;;;;;;;;;;;;;;22.12;48.95;95484.06;5081175;28;19986;-66
2022/10/08 10:46:32;;;;;;;;;;;;;;;22.01;48.82;95476.56;5080660;28;19932;-66
2022/10/08 10:48:59;;;;;;;;;;;;;;;22.64;48.22;95470.81;5080584;28;20138;-66
2022/10/08 10:51:38;;;;;;;;;;;;;;;22.11;48.03;95468.44;5081499;28;19947;-65
2022/10/08 10:54:11;;;;;;;;;;;;;;;22.50;48.19;95464.69;5081423;28;20491;-66
2022/10/08 10:56:43;;;;;;;;;;;;;;;22.47;48.50;95462.59;5078414;28;19947;-66
2022/10/08 10:59:11;;;;;;;;;;;;;;;22.88;46.72;95457.38;5080539;28;20045;-66
2022/10/08 11:01:52;;;;;;;;;;;;;;;23.48;47.53;95459.19;5079941;28;20326;-66
2022/10/08 11:04:25;;;;;;;;;;;;;;;23.98;45.00;95466.34;5083537;28;20875;-67
2022/10/08 11:06:52;;;;;;;;;;;;;;;24.39;44.48;95454.00;5080353;28;19977;-65
2022/10/08 11:09:18;;;;;;;;;;;;;;;24.52;42.90;95450.44;5081505;28;19928;-65
2022/10/08 11:11:56;;;;;;;;;;;;;;;24.76;44.27;95441.38;5081794;28;19935;-65
2022/10/08 11:14:37;;;;;;;;;;;;;;;24.79;42.81;95443.41;5082827;28;19931;-65
2022/10/08 11:17:13;;;;;;;;;;;;;;;24.94;41.45;95432.38;5081685;28;19924;-65
2022/10/08 11:19:59;;;;;;;;;;;;;;;25.37;40.01;95426.41;5081693;28;20444;-65
2022/10/08 11:22:32;;;;;;;;;;;;;;;24.96;39.71;95422.19;5083660;28;19939;-65
2022/10/08 11:25:09;;;;;;;;;;;;;;;24.57;39.71;95423.72;5083109;28;20362;-65
2022/10/08 11:27:39;;;;;;;;;;;;;;;24.36;40.36;95423.44;5082844;28;20022;-64
2022/10/08 11:30:13;;;;;;;;;;;;;;;24.49;40.44;95415.66;5082588;28;20451;-65
2022/10/08 11:32:42;;;;;;;;;;;;;;;24.93;42.34;95409.47;5084252;28;19932;-65
2022/10/08 11:35:11;;;;;;;;;;;;;;;25.05;39.04;95416.09;5082384;28;20332;-65
2022/10/08 11:37:41;;;;;;;;;;;;;;;25.03;39.14;95407.63;5081654;28;19972;-65
2022/10/08 11:40:25;;;;;;;;;;;;;;;25.44;38.66;95401.16;5080863;28;19924;-66
2022/10/08 11:43:01;;;;;;;;;;;;;;;25.70;37.03;95399.31;5083147;28;19924;-66
2022/10/08 11:45:30;;;;;;;;;;;;;;;25.01;38.94;95402.59;5085784;28;19967;-65
2022/10/08 11:47:58;;;;;;;;;;;;;;;25.46;39.84;95396.31;5085170;28;20023;-65
2022/10/08 11:50:33;;;;;;;;;;;;;;;25.92;37.01;95389.56;5084101;28;19928;-65
2022/10/08 11:53:09;;;;;;;;;;;;;;;26.17;36.91;95389.91;5085046;28;20355;-66
2022/10/08 11:55:36;;;;;;;;;;;;;;;26.09;37.35;95394.94;5083688;28;19928;-66
2022/10/08 11:58:16;;;;;;;;;;;;;;;26.12;36.19;95386.28;5086344;28;20001;-66
2022/10/08 12:00:46;;;;;;;;;;;;;;;25.32;37.13;95383.91;5083040;28;19985;-67
2022/10/08 12:03:32;;;;;;;;;;;;;;;25.66;38.71;95374.38;5084940;28;20328;-67
2022/10/08 12:06:12;;;;;;;;;;;;;;;26.04;36.81;95371.06;5086867;28;19931;-67
2022/10/08 12:08:46;;;;;;;;;;;;;;;26.75;36.51;95369.03;5087244;28;19963;-67
2022/10/08 12:11:28;;;;;;;;;;;;;;;27.33;34.50;95369.34;5084824;28;19958;-67
2022/10/08 12:14:16;;;;;;;;;;;;;;;27.67;33.81;95367.53;5084285;28;19931;-67
2022/10/08 12:16:54;;;;;;;;;;;;;;;27.98;33.63;95373.28;5084535;28;19990;-67
2022/10/08 12:19:33;;;;;;;;;;;;;;;28.30;32.33;95368.25;5079729;28;20382;-67
2022/10/08 12:22:03;;;;;;;;;;;;;;;27.92;31.78;95358.53;5084690;28;19967;-67
2022/10/08 12:24:48;;;;;;;;;;;;;;;27.79;32.61;95359.56;5084579;28;19963;-66
2022/10/08 12:27:49;;;;;;;;;;;;;;;28.09;31.88;95346.09;5084538;28;20378;-68
2022/10/08 12:30:42;;;;;;;;;;;;;;;28.70;31.82;95340.88;5083245;28;19932;-66
2022/10/08 12:33:09;;;;;;;;;;;;;;;28.38;33.90;95337.91;5080913;28;19928;-67
2022/10/08 12:35:39;;;;;;;;;;;;;;;28.56;33.53;95335.06;5082678;28;19974;-67
2022/10/08 12:38:14;;;;;;;;;;;;;;;28.33;32.19;95335.44;5089041;28;20016;-66
2022/10/08 12:40:50;;;;;;;;;;;;;;;29.14;31.03;95334.94;5080748;28;19928;-66
2022/10/08 12:43:23;;;;;;;;;;;;;;;29.07;31.51;95335.50;5082771;27;19993;-67
2022/10/08 12:45:54;;;;;;;;;;;;;;;29.12;30.09;95332.59;5083492;28;20027;-66
2022/10/08 12:48:32;;;;;;;;;;;;;;;28.05;31.16;95329.13;5084545;28;19928;-66
2022/10/08 12:51:19;;;;;;;;;;;;;;;28.79;31.51;95325.47;5083852;28;19935;-66
2022/10/08 12:53:46;;;;;;;;;;;;;;;29.24;30.89;95333.69;5083992;28;19985;-66
2022/10/08 12:56:19;;;;;;;;;;;;;;;29.19;30.65;95325.88;5083412;28;20420;-67
2022/10/08 12:58:47;;;;;;;;;;;;;;;29.36;29.55;95331.78;5082950;28;19935;-66
2022/10/08 13:01:15;;;;;;;;;;;;;;;29.05;30.26;95321.63;5085231;28;19924;-66
2022/10/08 13:03:42;;;;;;;;;;;;;;;28.87;30.03;95325.69;5085633;28;20451;-66
2022/10/08 13:06:16;;;;;;;;;;;;;;;28.20;29.24;95317.81;5084722;28;19935;-65
2022/10/08 13:08:43;;;;;;;;;;;;;;;27.97;29.71;95318.19;5087094;27;19977;-66
2022/10/08 13:11:11;;;;;;;;;;;;;;;28.40;29.28;95319.59;5083792;28;19979;-66
2022/10/08 13:13:38;;;;;;;;;;;;;;;28.57;29.18;95324.00;5083685;28;19936;-64
2022/10/08 13:16:09;;;;;;;;;;;;;;;29.21;29.47;95312.91;5083675;28;20346;-66
2022/10/08 13:18:38;;;;;;;;;;;;;;;29.57;29.48;95319.28;5084031;28;20363;-65
2022/10/08 13:21:21;;;;;;;;;;;;;;;29.22;29.08;95315.25;5069249;28;19928;-66
2022/10/08 13:23:48;;;;;;;;;;;;;;;29.25;29.42;95311.13;5081733;28;19979;-66
2022/10/08 13:26:33;;;;;;;;;;;;;;;28.99;29.21;95312.25;5082222;28;19968;-66
2022/10/08 13:29:18;;;;;;;;;;;;;;;28.38;30.28;95305.00;5083498;28;20356;-66
2022/10/08 13:32:05;;;;;;;;;;;;;;;28.75;30.08;95303.13;5082649;28;19928;-66
2022/10/08 13:34:33;;;;;;;;;;;;;;;28.64;29.41;95304.69;5081809;28;20000;-65
2022/10/08 13:37:01;;;;;;;;;;;;;;;28.62;29.34;95292.75;5083269;28;20505;-65
2022/10/08 13:39:30;;;;;;;;;;;;;;;29.06;28.84;95301.72;5083490;28;19940;-66
2022/10/08 13:41:58;;;;;;;;;;;;;;;29.91;27.78;95302.66;5083961;28;19932;-65
2022/10/08 13:44:26;;;;;;;;;;;;;;;30.16;27.99;95302.50;5083848;28;20465;-66
2022/10/08 13:46:53;;;;;;;;;;;;;;;31.76;26.25;95308.41;5083626;28;20416;-66